sensor_id;sensor_type;location;lat;lon;timestamp;pressure;altitude;pressure_sealevel;temperature;humidity
20228;BME280;12195;55.790;37.572;2023-07-30T00:01:35;98802.91;;;15.50;92.20
20228;BME280;12195;55.790;37.572;2023-07-30T00:04:21;98797.66;;;15.69;92.40
20228;BME280;12195;55.790;37.572;2023-07-30T00:06:54;98795.54;;;15.44;92.76
20228;BME280;12195;55.790;37.572;2023-07-30T00:09:37;98800.99;;;15.71;92.68
20228;BME280;12195;55.790;37.572;2023-07-30T00:12:20;98794.58;;;15.73;92.58
20228;BME280;12195;55.790;37.572;2023-07-30T00:14:53;98791.94;;;15.54;92.29
20228;BME280;12195;55.790;37.572;2023-07-30T00:17:36;98791.94;;;15.73;92.07
20228;BME280;12195;55.790;37.572;2023-07-30T00:20:19;98799.33;;;15.70;91.96
20228;BME280;12195;55.790;37.572;2023-07-30T00:23:01;98796.13;;;15.66;91.86
20228;BME280;12195;55.790;37.572;2023-07-30T00:25:35;98787.44;;;15.45;91.85
20228;BME280;12195;55.790;37.572;2023-07-30T00:28:20;98822.73;;;15.65;92.00
20228;BME280;12195;55.790;37.572;2023-07-30T00:31:03;98795.23;;;15.47;91.52
20228;BME280;12195;55.790;37.572;2023-07-30T00:33:36;98795.23;;;15.47;91.52
20228;BME280;12195;55.790;37.572;2023-07-30T00:36:21;98790.54;;;15.69;91.49
20228;BME280;12195;55.790;37.572;2023-07-30T00:39:03;98786.09;;;15.70;91.34
20228;BME280;12195;55.790;37.572;2023-07-30T00:41:36;98781.06;;;15.48;91.28
20228;BME280;12195;55.790;37.572;2023-07-30T00:44:21;98780.09;;;15.68;91.36
20228;BME280;12195;55.790;37.572;2023-07-30T00:47:06;98777.57;;;15.47;91.11
20228;BME280;12195;55.790;37.572;2023-07-30T00:49:38;98777.57;;;15.47;91.11
20228;BME280;12195;55.790;37.572;2023-07-30T00:52:23;98779.95;;;15.69;91.07
20228;BME280;12195;55.790;37.572;2023-07-30T00:54:59;98767.41;;;15.52;90.16
20228;BME280;12195;55.790;37.572;2023-07-30T00:58:05;98752.23;;;15.45;90.15
20228;BME280;12195;55.790;37.572;2023-07-30T01:00:38;98752.23;;;15.45;90.15
20228;BME280;12195;55.790;37.572;2023-07-30T01:03:23;98771.31;;;15.86;88.83
20228;BME280;12195;55.790;37.572;2023-07-30T01:06:07;98768.53;;;15.88;88.94
20228;BME280;12195;55.790;37.572;2023-07-30T01:08:51;98745.13;;;15.55;88.43
20228;BME280;12195;55.790;37.572;2023-07-30T01:11:25;98745.13;;;15.55;88.43
20228;BME280;12195;55.790;37.572;2023-07-30T01:14:10;98775.52;;;15.89;88.32
20228;BME280;12195;55.790;37.572;2023-07-30T01:16:53;98772.73;;;15.81;88.50
20228;BME280;12195;55.790;37.572;2023-07-30T01:19:37;98763.80;;;15.72;88.74
20228;BME280;12195;55.790;37.572;2023-07-30T01:22:10;98767.13;;;15.46;88.79
20228;BME280;12195;55.790;37.572;2023-07-30T01:24:52;98754.24;;;15.22;89.21
20228;BME280;12195;55.790;37.572;2023-07-30T01:30:18;98772.67;;;15.43;89.75
20228;BME280;12195;55.790;37.572;2023-07-30T01:33:05;98768.92;;;15.36;89.97
20228;BME280;12195;55.790;37.572;2023-07-30T01:35:38;98766.75;;;15.11;90.08
20228;BME280;12195;55.790;37.572;2023-07-30T01:38:22;98769.98;;;15.24;90.46
20228;BME280;12195;55.790;37.572;2023-07-30T01:40:55;98767.53;;;15.02;90.64
20228;BME280;12195;55.790;37.572;2023-07-30T01:43:28;98772.27;;;14.98;90.96
20228;BME280;12195;55.790;37.572;2023-07-30T01:46:10;98768.90;;;14.96;91.27
20228;BME280;12195;55.790;37.572;2023-07-30T01:48:43;98768.90;;;14.96;91.27
20228;BME280;12195;55.790;37.572;2023-07-30T01:51:27;98763.61;;;14.96;91.08
20228;BME280;12195;55.790;37.572;2023-07-30T01:54:09;98778.73;;;15.24;91.32
20228;BME280;12195;55.790;37.572;2023-07-30T01:56:42;98777.45;;;15.19;90.46
20228;BME280;12195;55.790;37.572;2023-07-30T01:59:25;98760.22;;;15.15;89.75
20228;BME280;12195;55.790;37.572;2023-07-30T02:01:58;98760.22;;;15.15;89.75
20228;BME280;12195;55.790;37.572;2023-07-30T02:04:43;98783.97;;;15.45;90.34
20228;BME280;12195;55.790;37.572;2023-07-30T02:07:15;98760.48;;;15.12;90.10
20228;BME280;12195;55.790;37.572;2023-07-30T02:10:00;98778.69;;;15.45;90.07
20228;BME280;12195;55.790;37.572;2023-07-30T02:12:45;98784.11;;;15.43;90.05
20228;BME280;12195;55.790;37.572;2023-07-30T02:15:18;98781.66;;;15.31;89.41
20228;BME280;12195;55.790;37.572;2023-07-30T02:18:02;98789.84;;;15.58;89.13
20228;BME280;12195;55.790;37.572;2023-07-30T02:20:45;98787.74;;;15.61;88.80
20228;BME280;12195;55.790;37.572;2023-07-30T02:23:18;98780.34;;;15.46;88.40
20228;BME280;12195;55.790;37.572;2023-07-30T02:26:02;98788.61;;;15.71;88.16
20228;BME280;12195;55.790;37.572;2023-07-30T02:28:46;98790.98;;;15.74;87.59
20228;BME280;12195;55.790;37.572;2023-07-30T02:31:19;98790.81;;;15.57;87.11
20228;BME280;12195;55.790;37.572;2023-07-30T02:34:02;98783.86;;;15.75;87.04
20228;BME280;12195;55.790;37.572;2023-07-30T02:36:45;98790.14;;;15.74;86.90
20228;BME280;12195;55.790;37.572;2023-07-30T02:39:18;98784.41;;;15.59;86.24
20228;BME280;12195;55.790;37.572;2023-07-30T02:42:02;98792.08;;;15.81;86.18
20228;BME280;12195;55.790;37.572;2023-07-30T02:44:46;98787.63;;;15.82;85.98
20228;BME280;12195;55.790;37.572;2023-07-30T02:47:19;98791.66;;;15.67;85.53
20228;BME280;12195;55.790;37.572;2023-07-30T02:50:03;98791.23;;;15.90;85.40
20228;BME280;12195;55.790;37.572;2023-07-30T02:52:35;98795.30;;;15.75;84.80
20228;BME280;12195;55.790;37.572;2023-07-30T02:55:20;98797.93;;;15.94;84.93
20228;BME280;12195;55.790;37.572;2023-07-30T02:57:52;98795.98;;;15.77;84.66
20228;BME280;12195;55.790;37.572;2023-07-30T03:00:35;98802.95;;;15.98;84.77
20228;BME280;12195;55.790;37.572;2023-07-30T03:03:08;98775.50;;;15.70;83.93
20228;BME280;12195;55.790;37.572;2023-07-30T03:05:54;98803.37;;;16.03;84.55
20228;BME280;12195;55.790;37.572;2023-07-30T03:08:40;98803.53;;;16.01;84.41
20228;BME280;12195;55.790;37.572;2023-07-30T03:11:12;98799.05;;;15.92;83.97
20228;BME280;12195;55.790;37.572;2023-07-30T03:13:57;98809.52;;;16.22;83.81
20228;BME280;12195;55.790;37.572;2023-07-30T03:16:40;98812.30;;;16.30;83.34
20228;BME280;12195;55.790;37.572;2023-07-30T03:19:12;98805.61;;;16.17;82.88
20228;BME280;12195;55.790;37.572;2023-07-30T03:21:55;98820.81;;;16.43;82.93
20228;BME280;12195;55.790;37.572;2023-07-30T03:24:41;98819.81;;;16.54;82.60
20228;BME280;12195;55.790;37.572;2023-07-30T03:27:24;98817.01;;;16.65;81.85
20228;BME280;12195;55.790;37.572;2023-07-30T03:29:57;98811.72;;;16.55;81.15
20228;BME280;12195;55.790;37.572;2023-07-30T03:32:31;98805.95;;;16.69;80.66
20228;BME280;12195;55.790;37.572;2023-07-30T03:35:03;98816.06;;;16.93;81.17
20228;BME280;12195;55.790;37.572;2023-07-30T03:37:49;98814.30;;;17.20;80.11
20228;BME280;12195;55.790;37.572;2023-07-30T03:40:21;98814.58;;;17.17;79.12
20228;BME280;12195;55.790;37.572;2023-07-30T03:43:07;98820.00;;;17.52;78.65
20228;BME280;12195;55.790;37.572;2023-07-30T03:45:39;98815.16;;;17.48;77.34
20228;BME280;12195;55.790;37.572;2023-07-30T03:48:22;98824.29;;;17.80;77.29
20228;BME280;12195;55.790;37.572;2023-07-30T03:51:06;98823.78;;;17.94;76.61
20228;BME280;12195;55.790;37.572;2023-07-30T03:53:52;98822.39;;;18.08;76.15
20228;BME280;12195;55.790;37.572;2023-07-30T03:56:25;98826.12;;;17.97;75.16
20228;BME280;12195;55.790;37.572;2023-07-30T03:59:11;98836.68;;;18.24;75.30
20228;BME280;12195;55.790;37.572;2023-07-30T04:01:54;98838.34;;;18.08;75.38
20228;BME280;12195;55.790;37.572;2023-07-30T04:04:26;98828.92;;;17.96;74.70
20228;BME280;12195;55.790;37.572;2023-07-30T04:07:09;98834.31;;;18.21;74.78
20228;BME280;12195;55.790;37.572;2023-07-30T04:09:42;98828.48;;;18.00;73.59
20228;BME280;12195;55.790;37.572;2023-07-30T04:12:28;98840.48;;;18.22;74.66
20228;BME280;12195;55.790;37.572;2023-07-30T04:15:11;98841.99;;;18.24;74.22
20228;BME280;12195;55.790;37.572;2023-07-30T04:17:44;98841.47;;;18.03;73.58
20228;BME280;12195;55.790;37.572;2023-07-30T04:20:28;98840.70;;;18.28;74.50
20228;BME280;12195;55.790;37.572;2023-07-30T04:23:01;98848.52;;;18.12;73.46
20228;BME280;12195;55.790;37.572;2023-07-30T04:25:48;98851.51;;;18.44;73.89
20228;BME280;12195;55.790;37.572;2023-07-30T04:28:30;98848.22;;;18.50;73.24
20228;BME280;12195;55.790;37.572;2023-07-30T04:31:03;98851.95;;;18.40;72.66
20228;BME280;12195;55.790;37.572;2023-07-30T04:33:46;98861.48;;;18.68;72.71
20228;BME280;12195;55.790;37.572;2023-07-30T04:36:28;98856.38;;;18.74;72.57
20228;BME280;12195;55.790;37.572;2023-07-30T04:39:01;98861.73;;;18.57;72.07
20228;BME280;12195;55.790;37.572;2023-07-30T04:41:48;98867.77;;;18.84;71.62
20228;BME280;12195;55.790;37.572;2023-07-30T04:44:33;98872.40;;;18.82;71.49
20228;BME280;12195;55.790;37.572;2023-07-30T04:47:08;98861.73;;;18.57;71.47
20228;BME280;12195;55.790;37.572;2023-07-30T04:49:54;98864.57;;;18.81;72.52
20228;BME280;12195;55.790;37.572;2023-07-30T04:52:27;98868.17;;;18.72;70.83
20228;BME280;12195;55.790;37.572;2023-07-30T04:55:10;98874.53;;;19.04;70.44
20228;BME280;12195;55.790;37.572;2023-07-30T04:57:43;98871.09;;;18.86;70.41
20228;BME280;12195;55.790;37.572;2023-07-30T05:00:16;98874.27;;;18.90;69.92
20228;BME280;12195;55.790;37.572;2023-07-30T05:03:01;98877.23;;;19.12;70.43
20228;BME280;12195;55.790;37.572;2023-07-30T05:05:44;98882.95;;;19.17;70.18
20228;BME280;12195;55.790;37.572;2023-07-30T05:08:17;98891.44;;;18.95;70.01
20228;BME280;12195;55.790;37.572;2023-07-30T05:10:50;98883.45;;;18.95;70.19
20228;BME280;12195;55.790;37.572;2023-07-30T05:13:22;98890.98;;;19.00;70.14
20228;BME280;12195;55.790;37.572;2023-07-30T05:16:06;98892.19;;;19.31;69.79
20228;BME280;12195;55.790;37.572;2023-07-30T05:18:39;98886.92;;;19.13;69.97
20228;BME280;12195;55.790;37.572;2023-07-30T05:21:24;98893.58;;;19.43;69.79
20228;BME280;12195;55.790;37.572;2023-07-30T05:23:57;98892.29;;;19.21;69.69
20228;BME280;12195;55.790;37.572;2023-07-30T05:26:41;98894.93;;;19.47;70.02
20228;BME280;12195;55.790;37.572;2023-07-30T05:29:25;98883.66;;;19.53;70.17
20228;BME280;12195;55.790;37.572;2023-07-30T05:31:58;98889.06;;;19.35;69.52
20228;BME280;12195;55.790;37.572;2023-07-30T05:34:31;98895.39;;;19.34;69.23
20228;BME280;12195;55.790;37.572;2023-07-30T05:37:04;98901.38;;;19.36;69.37
20228;BME280;12195;55.790;37.572;2023-07-30T05:39:37;98882.08;;;19.34;69.27
20228;BME280;12195;55.790;37.572;2023-07-30T05:42:26;98889.17;;;19.59;69.61
20228;BME280;12195;55.790;37.572;2023-07-30T05:44:58;98884.23;;;19.39;69.33
20228;BME280;12195;55.790;37.572;2023-07-30T05:47:42;98900.18;;;19.64;69.06
20228;BME280;12195;55.790;37.572;2023-07-30T05:50:15;98890.56;;;19.38;68.96
20228;BME280;12195;55.790;37.572;2023-07-30T05:52:57;98885.52;;;19.60;69.21
20228;BME280;12195;55.790;37.572;2023-07-30T05:55:30;98886.95;;;19.47;68.99
20228;BME280;12195;55.790;37.572;2023-07-30T05:58:14;98883.22;;;19.73;68.74
20228;BME280;12195;55.790;37.572;2023-07-30T06:00:46;98884.85;;;19.58;68.39
20228;BME280;12195;55.790;37.572;2023-07-30T06:03:30;98876.77;;;19.84;68.52
20228;BME280;12195;55.790;37.572;2023-07-30T06:06:14;98882.28;;;19.90;68.55
20228;BME280;12195;55.790;37.572;2023-07-30T06:08:58;98881.48;;;19.98;68.03
20228;BME280;12195;55.790;37.572;2023-07-30T06:11:43;98885.67;;;20.08;67.89
20228;BME280;12195;55.790;37.572;2023-07-30T06:14:26;98880.23;;;20.18;67.45
20228;BME280;12195;55.790;37.572;2023-07-30T06:16:59;98868.02;;;20.07;66.88
20228;BME280;12195;55.790;37.572;2023-07-30T06:19:45;98874.56;;;20.37;66.89
20228;BME280;12195;55.790;37.572;2023-07-30T06:22:18;98860.34;;;20.04;66.72
20228;BME280;12195;55.790;37.572;2023-07-30T06:25:01;98875.75;;;20.50;65.93
20228;BME280;12195;55.790;37.572;2023-07-30T06:27:34;98862.57;;;20.41;65.69
20228;BME280;12195;55.790;37.572;2023-07-30T06:30:18;98879.27;;;20.75;65.40
20228;BME280;12195;55.790;37.572;2023-07-30T06:32:51;98863.09;;;20.69;64.21
20228;BME280;12195;55.790;37.572;2023-07-30T06:35:36;98863.06;;;21.01;64.30
20228;BME280;12195;55.790;37.572;2023-07-30T06:38:09;98858.24;;;20.72;63.21
20228;BME280;12195;55.790;37.572;2023-07-30T06:40:54;98852.75;;;20.98;63.89
20228;BME280;12195;55.790;37.572;2023-07-30T06:43:39;98854.23;;;21.00;63.44
20228;BME280;12195;55.790;37.572;2023-07-30T06:46:12;98852.38;;;20.77;63.48
20228;BME280;12195;55.790;37.572;2023-07-30T06:48:57;98848.05;;;21.00;62.90
20228;BME280;12195;55.790;37.572;2023-07-30T06:51:40;98846.06;;;21.02;62.80
20228;BME280;12195;55.790;37.572;2023-07-30T06:54:13;98841.91;;;20.75;62.01
20228;BME280;12195;55.790;37.572;2023-07-30T06:56:58;98845.38;;;21.00;62.57
20228;BME280;12195;55.790;37.572;2023-07-30T06:59:44;98844.36;;;21.09;62.12
20228;BME280;12195;55.790;37.572;2023-07-30T07:02:17;98838.40;;;20.67;61.70
20228;BME280;12195;55.790;37.572;2023-07-30T07:05:02;98843.86;;;21.13;61.62
20228;BME280;12195;55.790;37.572;2023-07-30T07:07:47;98840.44;;;21.35;60.66
20228;BME280;12195;55.790;37.572;2023-07-30T07:10:31;98840.03;;;21.54;59.91
20228;BME280;12195;55.790;37.572;2023-07-30T07:13:04;98836.21;;;21.49;58.97
20228;BME280;12195;55.790;37.572;2023-07-30T07:15:49;98845.13;;;21.80;59.97
20228;BME280;12195;55.790;37.572;2023-07-30T07:18:33;98834.19;;;21.89;59.21
20228;BME280;12195;55.790;37.572;2023-07-30T07:21:06;98827.77;;;21.76;58.30
20228;BME280;12195;55.790;37.572;2023-07-30T07:23:50;98836.24;;;22.10;58.32
20228;BME280;12195;55.790;37.572;2023-07-30T07:26:22;98832.78;;;22.01;57.27
20228;BME280;12195;55.790;37.572;2023-07-30T07:29:06;98841.42;;;22.34;57.40
20228;BME280;12195;55.790;37.572;2023-07-30T07:31:40;98825.61;;;22.24;56.19
20228;BME280;12195;55.790;37.572;2023-07-30T07:34:23;98840.66;;;22.48;56.11
20228;BME280;12195;55.790;37.572;2023-07-30T07:36:55;98832.78;;;22.24;56.30
20228;BME280;12195;55.790;37.572;2023-07-30T07:39:41;98840.98;;;22.45;56.77
20228;BME280;12195;55.790;37.572;2023-07-30T07:42:25;98834.64;;;22.46;56.66
20228;BME280;12195;55.790;37.572;2023-07-30T07:44:58;98823.77;;;22.25;56.96
20228;BME280;12195;55.790;37.572;2023-07-30T07:47:44;98840.95;;;22.53;55.90
20228;BME280;12195;55.790;37.572;2023-07-30T07:50:18;98832.91;;;22.30;54.90
20228;BME280;12195;55.790;37.572;2023-07-30T07:53:04;98838.48;;;22.51;55.87
20228;BME280;12195;55.790;37.572;2023-07-30T07:55:38;98824.35;;;22.35;55.49
20228;BME280;12195;55.790;37.572;2023-07-30T07:58:20;98844.50;;;22.68;56.12
20228;BME280;12195;55.790;37.572;2023-07-30T08:00:55;98826.09;;;22.50;54.67
20228;BME280;12195;55.790;37.572;2023-07-30T08:03:40;98840.10;;;22.75;54.76
20228;BME280;12195;55.790;37.572;2023-07-30T08:06:13;98828.77;;;22.50;54.20
20228;BME280;12195;55.790;37.572;2023-07-30T08:08:46;98826.86;;;22.59;54.16
20228;BME280;12195;55.790;37.572;2023-07-30T08:11:19;98827.25;;;22.70;53.88
20228;BME280;12195;55.790;37.572;2023-07-30T08:14:04;98823.05;;;23.05;53.93
20228;BME280;12195;55.790;37.572;2023-07-30T08:16:37;98827.47;;;22.98;53.13
20228;BME280;12195;55.790;37.572;2023-07-30T08:19:23;98828.44;;;23.34;53.41
20228;BME280;12195;55.790;37.572;2023-07-30T08:22:11;98820.39;;;23.48;53.35
20228;BME280;12195;55.790;37.572;2023-07-30T08:24:44;98823.25;;;23.47;52.35
20228;BME280;12195;55.790;37.572;2023-07-30T08:27:27;98823.67;;;23.79;52.34
20228;BME280;12195;55.790;37.572;2023-07-30T08:30:00;98826.98;;;23.81;51.42
20228;BME280;12195;55.790;37.572;2023-07-30T08:32:43;98829.83;;;24.30;51.41
20228;BME280;12195;55.790;37.572;2023-07-30T08:35:28;98826.94;;;24.52;51.18
20228;BME280;12195;55.790;37.572;2023-07-30T08:38:01;98825.26;;;24.51;50.27
20228;BME280;12195;55.790;37.572;2023-07-30T08:40:44;98832.65;;;24.91;50.43
20228;BME280;12195;55.790;37.572;2023-07-30T08:43:21;98832.17;;;24.81;48.11
20228;BME280;12195;55.790;37.572;2023-07-30T08:46:07;98833.81;;;25.10;48.94
20228;BME280;12195;55.790;37.572;2023-07-30T08:48:41;98839.16;;;24.76;47.84
20228;BME280;12195;55.790;37.572;2023-07-30T08:51:29;98836.88;;;25.07;48.51
20228;BME280;12195;55.790;37.572;2023-07-30T08:54:15;98839.23;;;25.17;48.70
20228;BME280;12195;55.790;37.572;2023-07-30T08:57:00;98834.31;;;25.20;48.09
20228;BME280;12195;55.790;37.572;2023-07-30T08:59:39;98829.53;;;24.88;46.31
20228;BME280;12195;55.790;37.572;2023-07-30T09:05:16;98837.98;;;25.40;46.55
20228;BME280;12195;55.790;37.572;2023-07-30T09:08:01;98833.41;;;25.41;46.25
20228;BME280;12195;55.790;37.572;2023-07-30T09:10:44;98829.97;;;25.53;46.15
20228;BME280;12195;55.790;37.572;2023-07-30T09:13:29;98830.66;;;25.75;46.50
20228;BME280;12195;55.790;37.572;2023-07-30T09:18:49;98826.87;;;26.03;45.06
20228;BME280;12195;55.790;37.572;2023-07-30T09:21:33;98828.33;;;26.06;44.26
20228;BME280;12195;55.790;37.572;2023-07-30T09:24:07;98824.12;;;25.90;43.07
20228;BME280;12195;55.790;37.572;2023-07-30T09:26:50;98823.81;;;26.19;44.08
20228;BME280;12195;55.790;37.572;2023-07-30T09:29:24;98822.36;;;26.17;42.99
20228;BME280;12195;55.790;37.572;2023-07-30T09:31:57;98827.36;;;26.33;42.12
20228;BME280;12195;55.790;37.572;2023-07-30T09:34:44;98832.97;;;26.57;43.35
20228;BME280;12195;55.790;37.572;2023-07-30T09:37:30;98845.83;;;26.55;43.24
20228;BME280;12195;55.790;37.572;2023-07-30T09:40:11;98829.61;;;26.23;42.18
20228;BME280;12195;55.790;37.572;2023-07-30T09:42:54;98835.02;;;26.49;42.26
20228;BME280;12195;55.790;37.572;2023-07-30T09:45:43;98833.95;;;26.30;42.83
20228;BME280;12195;55.790;37.572;2023-07-30T09:48:16;98835.28;;;25.87;42.25
20228;BME280;12195;55.790;37.572;2023-07-30T09:51:03;98857.09;;;26.05;42.89
20228;BME280;12195;55.790;37.572;2023-07-30T09:53:37;98837.28;;;25.72;41.74
20228;BME280;12195;55.790;37.572;2023-07-30T09:56:22;98843.20;;;25.95;42.75
20228;BME280;12195;55.790;37.572;2023-07-30T09:58:56;98841.38;;;25.62;42.36
20228;BME280;12195;55.790;37.572;2023-07-30T10:04:28;98863.59;;;25.36;44.37
20228;BME280;12195;55.790;37.572;2023-07-30T10:07:16;98855.59;;;25.49;44.48
20228;BME280;12195;55.790;37.572;2023-07-30T10:10:02;98861.59;;;25.51;43.74
20228;BME280;12195;55.790;37.572;2023-07-30T10:12:36;98854.16;;;25.26;43.06
20228;BME280;12195;55.790;37.572;2023-07-30T10:15:11;98852.89;;;25.22;43.51
20228;BME280;12195;55.790;37.572;2023-07-30T10:17:57;98857.41;;;25.42;43.88
20228;BME280;12195;55.790;37.572;2023-07-30T10:20:45;98863.79;;;25.35;43.87
20228;BME280;12195;55.790;37.572;2023-07-30T10:23:32;98872.98;;;25.26;43.80
20228;BME280;12195;55.790;37.572;2023-07-30T10:26:09;98865.87;;;24.84;43.23
20228;BME280;12195;55.790;37.572;2023-07-30T10:28:41;98870.77;;;25.02;43.40
20228;BME280;12195;55.790;37.572;2023-07-30T10:31:40;98862.30;;;25.04;44.47
20228;BME280;12195;55.790;37.572;2023-07-30T10:34:27;98866.44;;;25.07;43.82
20228;BME280;12195;55.790;37.572;2023-07-30T10:37:23;98862.48;;;24.75;44.08
20228;BME280;12195;55.790;37.572;2023-07-30T10:39:55;98857.66;;;24.64;42.77
20228;BME280;12195;55.790;37.572;2023-07-30T10:42:39;98862.25;;;24.98;42.81
20228;BME280;12195;55.790;37.572;2023-07-30T10:45:26;98863.98;;;25.06;42.72
20228;BME280;12195;55.790;37.572;2023-07-30T10:48:05;98863.80;;;24.86;40.82
20228;BME280;12195;55.790;37.572;2023-07-30T10:50:52;98872.13;;;25.19;41.76
20228;BME280;12195;55.790;37.572;2023-07-30T10:53:25;98847.25;;;25.10;41.59
20228;BME280;12195;55.790;37.572;2023-07-30T10:56:07;98847.59;;;25.62;41.28
20228;BME280;12195;55.790;37.572;2023-07-30T10:58:43;98851.88;;;25.50;41.04
20228;BME280;12195;55.790;37.572;2023-07-30T11:01:17;98844.00;;;25.49;41.85
20228;BME280;12195;55.790;37.572;2023-07-30T11:04:12;98850.89;;;25.64;42.02
20228;BME280;12195;55.790;37.572;2023-07-30T11:06:58;98865.63;;;25.34;43.34
20228;BME280;12195;55.790;37.572;2023-07-30T11:09:45;98856.22;;;25.51;43.30
20228;BME280;12195;55.790;37.572;2023-07-30T11:12:20;98855.83;;;25.54;41.38
20228;BME280;12195;55.790;37.572;2023-07-30T11:15:13;98854.23;;;26.20;40.44
20228;BME280;12195;55.790;37.572;2023-07-30T11:18:01;98854.52;;;26.51;39.53
20228;BME280;12195;55.790;37.572;2023-07-30T11:20:35;98852.86;;;26.50;39.40
20228;BME280;12195;55.790;37.572;2023-07-30T11:23:22;98857.03;;;26.91;39.25
20228;BME280;12195;55.790;37.572;2023-07-30T11:26:09;98855.58;;;27.02;38.86
20228;BME280;12195;55.790;37.572;2023-07-30T11:28:43;98853.10;;;26.74;39.27
20228;BME280;12195;55.790;37.572;2023-07-30T11:31:20;98853.06;;;26.48;39.47
20228;BME280;12195;55.790;37.572;2023-07-30T11:34:07;98859.05;;;26.50;39.78
20228;BME280;12195;55.790;37.572;2023-07-30T11:36:41;98856.58;;;25.82;39.31
20228;BME280;12195;55.790;37.572;2023-07-30T11:39:26;98861.00;;;25.96;39.87
20228;BME280;12195;55.790;37.572;2023-07-30T11:42:12;98859.22;;;25.35;41.63
20228;BME280;12195;55.790;37.572;2023-07-30T11:44:55;98861.27;;;25.67;41.04
20228;BME280;12195;55.790;37.572;2023-07-30T11:47:42;98860.19;;;25.96;41.00
20228;BME280;12195;55.790;37.572;2023-07-30T11:50:15;98850.73;;;26.19;39.35
20228;BME280;12195;55.790;37.572;2023-07-30T11:53:00;98848.35;;;26.83;38.00
20228;BME280;12195;55.790;37.572;2023-07-30T11:55:44;98844.49;;;27.62;37.13
20228;BME280;12195;55.790;37.572;2023-07-30T11:58:17;98837.60;;;27.72;36.46
20228;BME280;12195;55.790;37.572;2023-07-30T12:01:02;98859.26;;;28.78;36.05
20228;BME280;12195;55.790;37.572;2023-07-30T12:03:35;98850.73;;;28.50;35.47
20228;BME280;12195;55.790;37.572;2023-07-30T12:06:10;98844.56;;;29.96;32.72
20228;BME280;12195;55.790;37.572;2023-07-30T12:08:57;98847.97;;;31.60;31.76
20228;BME280;12195;55.790;37.572;2023-07-30T12:11:56;98848.23;;;31.47;31.31
20228;BME280;12195;55.790;37.572;2023-07-30T12:17:34;98842.55;;;33.00;29.80
20228;BME280;12195;55.790;37.572;2023-07-30T12:20:07;98832.48;;;34.68;25.65
20228;BME280;12195;55.790;37.572;2023-07-30T12:22:50;98841.53;;;36.75;24.30
20228;BME280;12195;55.790;37.572;2023-07-30T12:25:24;98833.85;;;36.97;22.33
20228;BME280;12195;55.790;37.572;2023-07-30T12:28:09;98843.94;;;37.52;22.93
20228;BME280;12195;55.790;37.572;2023-07-30T12:30:42;98831.38;;;37.10;21.93
20228;BME280;12195;55.790;37.572;2023-07-30T12:33:28;98856.05;;;37.31;23.91
20228;BME280;12195;55.790;37.572;2023-07-30T12:36:01;98849.27;;;35.55;23.61
20228;BME280;12195;55.790;37.572;2023-07-30T12:38:45;98845.28;;;36.44;24.04
20228;BME280;12195;55.790;37.572;2023-07-30T12:41:28;98849.45;;;37.11;21.98
20228;BME280;12195;55.790;37.572;2023-07-30T12:44:01;98838.45;;;38.30;20.41
20228;BME280;12195;55.790;37.572;2023-07-30T12:46:48;98839.48;;;41.08;19.49
20228;BME280;12195;55.790;37.572;2023-07-30T12:49:21;98832.66;;;42.05;17.17
20228;BME280;12195;55.790;37.572;2023-07-30T12:52:06;98849.02;;;44.64;15.45
20228;BME280;12195;55.790;37.572;2023-07-30T12:54:51;98841.50;;;45.71;14.79
20228;BME280;12195;55.790;37.572;2023-07-30T12:57:36;98833.77;;;46.96;14.72
20228;BME280;12195;55.790;37.572;2023-07-30T13:00:10;98813.27;;;45.06;13.88
20228;BME280;12195;55.790;37.572;2023-07-30T13:02:56;98842.56;;;48.35;13.47
20228;BME280;12195;55.790;37.572;2023-07-30T13:05:40;98837.45;;;48.89;13.17
20228;BME280;12195;55.790;37.572;2023-07-30T13:08:12;98818.31;;;47.75;11.77
20228;BME280;12195;55.790;37.572;2023-07-30T13:10:56;98842.76;;;49.21;11.53
20228;BME280;12195;55.790;37.572;2023-07-30T13:13:29;98812.50;;;43.89;13.80
20228;BME280;12195;55.790;37.572;2023-07-30T13:16:14;98830.55;;;42.38;15.40
20228;BME280;12195;55.790;37.572;2023-07-30T13:18:57;98819.06;;;41.95;16.37
20228;BME280;12195;55.790;37.572;2023-07-30T13:21:39;98822.52;;;43.07;16.35
20228;BME280;12195;55.790;37.572;2023-07-30T13:24:25;98813.28;;;44.80;15.24
20228;BME280;12195;55.790;37.572;2023-07-30T13:27:00;98800.92;;;45.41;13.01
20228;BME280;12195;55.790;37.572;2023-07-30T13:29:45;98807.22;;;46.45;13.32
20228;BME280;12195;55.790;37.572;2023-07-30T13:32:20;98802.21;;;44.63;13.65
20228;BME280;12195;55.790;37.572;2023-07-30T13:35:06;98808.95;;;46.09;13.81
20228;BME280;12195;55.790;37.572;2023-07-30T13:37:39;98796.27;;;41.90;15.81
20228;BME280;12195;55.790;37.572;2023-07-30T13:40:22;98812.75;;;43.71;15.20
20228;BME280;12195;55.790;37.572;2023-07-30T13:43:11;98809.34;;;44.38;14.45
20228;BME280;12195;55.790;37.572;2023-07-30T13:45:44;98798.07;;;43.62;14.27
20228;BME280;12195;55.790;37.572;2023-07-30T13:48:28;98806.84;;;45.22;13.76
20228;BME280;12195;55.790;37.572;2023-07-30T13:51:12;98805.48;;;45.45;13.94
20228;BME280;12195;55.790;37.572;2023-07-30T13:53:45;98790.73;;;44.90;13.22
20228;BME280;12195;55.790;37.572;2023-07-30T13:56:31;98802.91;;;46.89;12.84
20228;BME280;12195;55.790;37.572;2023-07-30T13:59:04;98787.34;;;46.14;12.21
20228;BME280;12195;55.790;37.572;2023-07-30T14:01:48;98801.27;;;47.89;11.93
20228;BME280;12195;55.790;37.572;2023-07-30T14:04:22;98785.98;;;46.82;11.59
20228;BME280;12195;55.790;37.572;2023-07-30T14:07:06;98790.82;;;47.86;12.12
20228;BME280;12195;55.790;37.572;2023-07-30T14:09:39;98774.14;;;46.03;12.37
20228;BME280;12195;55.790;37.572;2023-07-30T14:12:26;98795.33;;;47.54;12.41